sensor_id;sensor_type;location;lat;lon;timestamp;temperature;humidity
6666;DHT22;3369;49.906;8.598;2022-10-22T00:00:43;15.10;99.90
6666;DHT22;3369;49.906;8.598;2022-10-22T00:03:08;15.10;99.90
6666;DHT22;3369;49.906;8.598;2022-10-22T00:05:34;15.10;99.90
6666;DHT22;3369;49.906;8.598;2022-10-22T00:08:00;15.10;99.90
6666;DHT22;3369;49.906;8.598;2022-10-22T00:10:26;15.10;99.90
6666;DHT22;3369;49.906;8.598;2022-10-22T00:12:52;15.10;99.90
6666;DHT22;3369;49.906;8.598;2022-10-22T00:15:18;15.10;99.90
6666;DHT22;3369;49.906;8.598;2022-10-22T00:17:43;15.10;99.90
6666;DHT22;3369;49.906;8.598;2022-10-22T00:20:09;15.10;99.90
6666;DHT22;3369;49.906;8.598;2022-10-22T00:22:35;15.10;99.90
6666;DHT22;3369;49.906;8.598;2022-10-22T00:25:01;15.10;99.90
6666;DHT22;3369;49.906;8.598;2022-10-22T00:27:27;15.10;99.90
6666;DHT22;3369;49.906;8.598;2022-10-22T00:29:52;15.10;99.90
6666;DHT22;3369;49.906;8.598;2022-10-22T00:32:18;15.10;99.90
6666;DHT22;3369;49.906;8.598;2022-10-22T00:34:44;15.10;99.90
6666;DHT22;3369;49.906;8.598;2022-10-22T00:37:09;15.10;99.90
6666;DHT22;3369;49.906;8.598;2022-10-22T00:39:35;15.00;99.90
6666;DHT22;3369;49.906;8.598;2022-10-22T00:42:01;15.00;99.90
6666;DHT22;3369;49.906;8.598;2022-10-22T00:47:29;15.00;99.90
6666;DHT22;3369;49.906;8.598;2022-10-22T00:49:57;15.00;99.90
6666;DHT22;3369;49.906;8.598;2022-10-22T00:52:23;15.00;99.90
6666;DHT22;3369;49.906;8.598;2022-10-22T00:54:50;15.00;99.90
6666;DHT22;3369;49.906;8.598;2022-10-22T00:57:17;15.00;99.90
6666;DHT22;3369;49.906;8.598;2022-10-22T00:59:43;14.90;99.90
6666;DHT22;3369;49.906;8.598;2022-10-22T01:02:09;14.90;99.90
6666;DHT22;3369;49.906;8.598;2022-10-22T01:04:35;14.90;99.90
6666;DHT22;3369;49.906;8.598;2022-10-22T01:07:01;14.90;99.90
6666;DHT22;3369;49.906;8.598;2022-10-22T01:09:47;14.90;99.90
6666;DHT22;3369;49.906;8.598;2022-10-22T01:18:02;14.80;99.90
6666;DHT22;3369;49.906;8.598;2022-10-22T01:29:08;14.70;99.90
6666;DHT22;3369;49.906;8.598;2022-10-22T01:31:41;14.70;99.90
6666;DHT22;3369;49.906;8.598;2022-10-22T01:34:10;14.70;99.90
6666;DHT22;3369;49.906;8.598;2022-10-22T01:36:38;14.70;99.90
6666;DHT22;3369;49.906;8.598;2022-10-22T01:39:04;14.60;99.90
6666;DHT22;3369;49.906;8.598;2022-10-22T01:41:30;14.70;99.90
6666;DHT22;3369;49.906;8.598;2022-10-22T01:43:56;14.60;99.90
6666;DHT22;3369;49.906;8.598;2022-10-22T01:46:24;14.60;99.90
6666;DHT22;3369;49.906;8.598;2022-10-22T01:49:10;14.60;99.90
6666;DHT22;3369;49.906;8.598;2022-10-22T01:52:01;14.60;99.90
6666;DHT22;3369;49.906;8.598;2022-10-22T01:57:32;14.60;99.90
6666;DHT22;3369;49.906;8.598;2022-10-22T02:00:05;14.50;99.90
6666;DHT22;3369;49.906;8.598;2022-10-22T02:03:24;14.50;99.90
6666;DHT22;3369;49.906;8.598;2022-10-22T02:05:48;14.40;99.90
6666;DHT22;3369;49.906;8.598;2022-10-22T02:08:28;14.40;99.90
6666;DHT22;3369;49.906;8.598;2022-10-22T02:10:57;14.40;99.90
6666;DHT22;3369;49.906;8.598;2022-10-22T02:13:35;14.40;99.90
6666;DHT22;3369;49.906;8.598;2022-10-22T02:16:05;14.30;99.90
6666;DHT22;3369;49.906;8.598;2022-10-22T02:38:54;14.20;99.90
6666;DHT22;3369;49.906;8.598;2022-10-22T02:41:20;14.20;99.90
6666;DHT22;3369;49.906;8.598;2022-10-22T02:43:53;14.10;99.90
6666;DHT22;3369;49.906;8.598;2022-10-22T02:46:19;14.10;99.90
6666;DHT22;3369;49.906;8.598;2022-10-22T02:48:44;14.10;99.90
6666;DHT22;3369;49.906;8.598;2022-10-22T02:51:10;14.10;99.90
6666;DHT22;3369;49.906;8.598;2022-10-22T02:53:36;14.10;99.90
6666;DHT22;3369;49.906;8.598;2022-10-22T02:56:02;14.10;99.90
6666;DHT22;3369;49.906;8.598;2022-10-22T02:58:27;14.10;99.90
6666;DHT22;3369;49.906;8.598;2022-10-22T03:00:53;14.10;99.90
6666;DHT22;3369;49.906;8.598;2022-10-22T03:03:19;14.10;99.90
6666;DHT22;3369;49.906;8.598;2022-10-22T03:05:44;14.10;99.90
6666;DHT22;3369;49.906;8.598;2022-10-22T03:08:10;14.10;99.90
6666;DHT22;3369;49.906;8.598;2022-10-22T03:10:36;14.10;99.90
6666;DHT22;3369;49.906;8.598;2022-10-22T03:13:02;14.10;99.90
6666;DHT22;3369;49.906;8.598;2022-10-22T03:15:27;14.10;99.90
6666;DHT22;3369;49.906;8.598;2022-10-22T03:17:53;14.00;99.90
6666;DHT22;3369;49.906;8.598;2022-10-22T03:20:19;14.10;99.90
6666;DHT22;3369;49.906;8.598;2022-10-22T03:22:45;14.00;99.90
6666;DHT22;3369;49.906;8.598;2022-10-22T03:25:14;14.00;99.90
6666;DHT22;3369;49.906;8.598;2022-10-22T03:27:41;14.00;99.90
6666;DHT22;3369;49.906;8.598;2022-10-22T03:30:08;14.00;99.90
6666;DHT22;3369;49.906;8.598;2022-10-22T03:32:34;14.00;99.90
6666;DHT22;3369;49.906;8.598;2022-10-22T03:34:59;14.00;99.90
6666;DHT22;3369;49.906;8.598;2022-10-22T03:37:26;14.00;99.90
6666;DHT22;3369;49.906;8.598;2022-10-22T03:39:52;14.00;99.90
6666;DHT22;3369;49.906;8.598;2022-10-22T03:42:19;14.00;99.90
6666;DHT22;3369;49.906;8.598;2022-10-22T03:44:45;14.00;99.90
6666;DHT22;3369;49.906;8.598;2022-10-22T03:47:10;14.00;99.90
6666;DHT22;3369;49.906;8.598;2022-10-22T03:49:36;14.00;99.90
6666;DHT22;3369;49.906;8.598;2022-10-22T03:52:10;14.00;99.90
6666;DHT22;3369;49.906;8.598;2022-10-22T03:54:36;14.00;99.90
6666;DHT22;3369;49.906;8.598;2022-10-22T03:57:04;14.00;99.90
6666;DHT22;3369;49.906;8.598;2022-10-22T03:59:44;14.00;99.90
6666;DHT22;3369;49.906;8.598;2022-10-22T04:02:11;14.00;99.90
6666;DHT22;3369;49.906;8.598;2022-10-22T04:04:38;14.00;99.90
6666;DHT22;3369;49.906;8.598;2022-10-22T04:07:04;14.00;99.90
6666;DHT22;3369;49.906;8.598;2022-10-22T04:09:32;14.00;99.90
6666;DHT22;3369;49.906;8.598;2022-10-22T04:11:58;14.00;99.90
6666;DHT22;3369;49.906;8.598;2022-10-22T04:14:24;13.90;99.90
6666;DHT22;3369;49.906;8.598;2022-10-22T04:16:50;14.00;99.90
6666;DHT22;3369;49.906;8.598;2022-10-22T04:19:15;14.00;99.90
6666;DHT22;3369;49.906;8.598;2022-10-22T04:21:41;14.00;99.90
6666;DHT22;3369;49.906;8.598;2022-10-22T04:24:07;14.00;99.90
6666;DHT22;3369;49.906;8.598;2022-10-22T04:26:33;13.90;99.90
6666;DHT22;3369;49.906;8.598;2022-10-22T04:28:58;14.00;99.90
6666;DHT22;3369;49.906;8.598;2022-10-22T04:31:25;13.90;99.90
6666;DHT22;3369;49.906;8.598;2022-10-22T04:33:58;13.90;99.90
6666;DHT22;3369;49.906;8.598;2022-10-22T04:36:25;13.90;99.90
6666;DHT22;3369;49.906;8.598;2022-10-22T04:38:53;14.00;99.90
6666;DHT22;3369;49.906;8.598;2022-10-22T04:41:28;13.90;99.90
6666;DHT22;3369;49.906;8.598;2022-10-22T04:43:55;13.90;99.90
6666;DHT22;3369;49.906;8.598;2022-10-22T04:46:21;13.90;99.90
6666;DHT22;3369;49.906;8.598;2022-10-22T04:48:47;13.90;99.90
6666;DHT22;3369;49.906;8.598;2022-10-22T04:51:16;13.90;99.90
6666;DHT22;3369;49.906;8.598;2022-10-22T04:53:43;13.90;99.90
6666;DHT22;3369;49.906;8.598;2022-10-22T04:56:15;13.90;99.90
6666;DHT22;3369;49.906;8.598;2022-10-22T04:58:42;13.90;99.90
6666;DHT22;3369;49.906;8.598;2022-10-22T05:01:11;13.90;99.90
6666;DHT22;3369;49.906;8.598;2022-10-22T05:03:37;13.90;99.90
6666;DHT22;3369;49.906;8.598;2022-10-22T05:06:02;13.90;99.90
6666;DHT22;3369;49.906;8.598;2022-10-22T05:08:28;13.90;99.90
6666;DHT22;3369;49.906;8.598;2022-10-22T05:10:54;13.90;99.90
6666;DHT22;3369;49.906;8.598;2022-10-22T05:13:20;13.90;99.90
6666;DHT22;3369;49.906;8.598;2022-10-22T05:15:45;13.90;99.90
6666;DHT22;3369;49.906;8.598;2022-10-22T05:18:11;13.90;99.90
6666;DHT22;3369;49.906;8.598;2022-10-22T05:20:41;13.90;99.90
6666;DHT22;3369;49.906;8.598;2022-10-22T05:23:06;13.90;99.90
6666;DHT22;3369;49.906;8.598;2022-10-22T05:25:38;13.80;99.90
6666;DHT22;3369;49.906;8.598;2022-10-22T05:28:04;13.90;99.90
6666;DHT22;3369;49.906;8.598;2022-10-22T05:30:30;13.90;99.90
6666;DHT22;3369;49.906;8.598;2022-10-22T05:32:56;13.90;99.90
6666;DHT22;3369;49.906;8.598;2022-10-22T05:35:22;13.90;99.90
6666;DHT22;3369;49.906;8.598;2022-10-22T05:37:47;13.90;99.90
6666;DHT22;3369;49.906;8.598;2022-10-22T05:40:13;13.90;99.90
6666;DHT22;3369;49.906;8.598;2022-10-22T05:42:39;13.90;99.90
6666;DHT22;3369;49.906;8.598;2022-10-22T05:45:05;13.90;99.90
6666;DHT22;3369;49.906;8.598;2022-10-22T05:47:31;13.90;99.90
6666;DHT22;3369;49.906;8.598;2022-10-22T05:49:57;13.90;99.90
6666;DHT22;3369;49.906;8.598;2022-10-22T05:52:23;13.90;99.90
6666;DHT22;3369;49.906;8.598;2022-10-22T05:54:49;13.90;99.90
6666;DHT22;3369;49.906;8.598;2022-10-22T05:57:14;13.90;99.90
6666;DHT22;3369;49.906;8.598;2022-10-22T05:59:40;13.90;99.90
6666;DHT22;3369;49.906;8.598;2022-10-22T06:02:08;13.90;99.90
6666;DHT22;3369;49.906;8.598;2022-10-22T06:04:34;14.00;99.90
6666;DHT22;3369;49.906;8.598;2022-10-22T06:07:00;14.00;99.90
6666;DHT22;3369;49.906;8.598;2022-10-22T06:09:33;14.00;99.90
6666;DHT22;3369;49.906;8.598;2022-10-22T06:11:59;14.00;99.90
6666;DHT22;3369;49.906;8.598;2022-10-22T06:14:26;14.00;99.90
6666;DHT22;3369;49.906;8.598;2022-10-22T06:16:53;14.00;99.90
6666;DHT22;3369;49.906;8.598;2022-10-22T06:19:21;14.10;99.90
6666;DHT22;3369;49.906;8.598;2022-10-22T06:21:47;14.10;99.90
6666;DHT22;3369;49.906;8.598;2022-10-22T06:24:13;14.10;99.90
6666;DHT22;3369;49.906;8.598;2022-10-22T06:26:39;14.10;99.90
6666;DHT22;3369;49.906;8.598;2022-10-22T06:29:06;14.10;99.90
6666;DHT22;3369;49.906;8.598;2022-10-22T06:31:32;14.10;99.90
6666;DHT22;3369;49.906;8.598;2022-10-22T06:34:06;14.10;99.90
6666;DHT22;3369;49.906;8.598;2022-10-22T06:36:32;14.10;99.90
6666;DHT22;3369;49.906;8.598;2022-10-22T06:38:58;14.10;99.90
6666;DHT22;3369;49.906;8.598;2022-10-22T06:41:24;14.10;99.90
6666;DHT22;3369;49.906;8.598;2022-10-22T06:43:50;14.10;99.90
6666;DHT22;3369;49.906;8.598;2022-10-22T06:46:18;14.00;99.90
6666;DHT22;3369;49.906;8.598;2022-10-22T06:48:50;14.00;99.90
6666;DHT22;3369;49.906;8.598;2022-10-22T06:51:17;14.00;99.90
6666;DHT22;3369;49.906;8.598;2022-10-22T06:53:42;14.00;99.90
6666;DHT22;3369;49.906;8.598;2022-10-22T06:56:11;14.00;99.90
6666;DHT22;3369;49.906;8.598;2022-10-22T06:58:37;14.00;99.90
6666;DHT22;3369;49.906;8.598;2022-10-22T07:01:11;14.00;99.90
6666;DHT22;3369;49.906;8.598;2022-10-22T07:03:38;14.00;99.90
6666;DHT22;3369;49.906;8.598;2022-10-22T07:06:11;14.00;99.90
6666;DHT22;3369;49.906;8.598;2022-10-22T07:08:37;14.00;99.90
6666;DHT22;3369;49.906;8.598;2022-10-22T07:11:14;14.00;99.90
6666;DHT22;3369;49.906;8.598;2022-10-22T07:13:40;13.90;99.90
6666;DHT22;3369;49.906;8.598;2022-10-22T07:16:07;13.90;99.90
6666;DHT22;3369;49.906;8.598;2022-10-22T07:18:34;13.90;99.90
6666;DHT22;3369;49.906;8.598;2022-10-22T07:21:00;13.90;99.90
6666;DHT22;3369;49.906;8.598;2022-10-22T07:23:26;13.90;99.90
6666;DHT22;3369;49.906;8.598;2022-10-22T07:25:52;13.90;99.90
6666;DHT22;3369;49.906;8.598;2022-10-22T07:28:18;13.90;99.90
6666;DHT22;3369;49.906;8.598;2022-10-22T07:30:44;14.00;99.90
6666;DHT22;3369;49.906;8.598;2022-10-22T07:33:10;13.90;99.90
6666;DHT22;3369;49.906;8.598;2022-10-22T07:35:37;14.00;99.90
6666;DHT22;3369;49.906;8.598;2022-10-22T07:38:03;14.00;99.90
6666;DHT22;3369;49.906;8.598;2022-10-22T07:40:29;14.00;99.90
6666;DHT22;3369;49.906;8.598;2022-10-22T07:42:54;14.00;99.90
6666;DHT22;3369;49.906;8.598;2022-10-22T07:45:20;14.10;99.90
6666;DHT22;3369;49.906;8.598;2022-10-22T07:47:47;14.10;99.90
6666;DHT22;3369;49.906;8.598;2022-10-22T07:50:12;14.20;99.90
6666;DHT22;3369;49.906;8.598;2022-10-22T07:52:38;14.20;99.90
6666;DHT22;3369;49.906;8.598;2022-10-22T07:55:04;14.20;99.90
6666;DHT22;3369;49.906;8.598;2022-10-22T07:57:30;14.30;99.90
6666;DHT22;3369;49.906;8.598;2022-10-22T07:59:56;14.40;99.90
6666;DHT22;3369;49.906;8.598;2022-10-22T08:02:23;14.40;99.90
6666;DHT22;3369;49.906;8.598;2022-10-22T08:04:49;14.50;99.90
6666;DHT22;3369;49.906;8.598;2022-10-22T08:07:16;14.60;99.90
6666;DHT22;3369;49.906;8.598;2022-10-22T08:09:42;14.60;99.90
6666;DHT22;3369;49.906;8.598;2022-10-22T08:12:08;14.70;99.90
6666;DHT22;3369;49.906;8.598;2022-10-22T08:14:33;14.80;99.90
6666;DHT22;3369;49.906;8.598;2022-10-22T08:16:59;14.80;99.90
6666;DHT22;3369;49.906;8.598;2022-10-22T08:19:25;14.90;99.90
6666;DHT22;3369;49.906;8.598;2022-10-22T08:21:50;15.00;99.90
6666;DHT22;3369;49.906;8.598;2022-10-22T08:24:17;15.00;99.90
6666;DHT22;3369;49.906;8.598;2022-10-22T08:26:42;15.10;99.90
6666;DHT22;3369;49.906;8.598;2022-10-22T08:29:08;15.20;99.90
6666;DHT22;3369;49.906;8.598;2022-10-22T08:31:34;15.30;99.90
6666;DHT22;3369;49.906;8.598;2022-10-22T08:34:00;15.40;99.90
6666;DHT22;3369;49.906;8.598;2022-10-22T08:36:25;15.50;99.90
6666;DHT22;3369;49.906;8.598;2022-10-22T08:38:51;15.60;99.90
6666;DHT22;3369;49.906;8.598;2022-10-22T08:41:19;15.70;99.90
6666;DHT22;3369;49.906;8.598;2022-10-22T08:49:32;16.00;99.90
6666;DHT22;3369;49.906;8.598;2022-10-22T08:51:59;16.10;99.90
6666;DHT22;3369;49.906;8.598;2022-10-22T08:54:52;16.20;99.90
6666;DHT22;3369;49.906;8.598;2022-10-22T08:57:51;16.20;99.90
6666;DHT22;3369;49.906;8.598;2022-10-22T09:00:24;16.30;99.90
6666;DHT22;3369;49.906;8.598;2022-10-22T09:02:58;16.40;99.90
6666;DHT22;3369;49.906;8.598;2022-10-22T09:08:21;16.50;99.90
6666;DHT22;3369;49.906;8.598;2022-10-22T09:10:51;16.70;99.90
6666;DHT22;3369;49.906;8.598;2022-10-22T09:13:19;16.80;99.90
6666;DHT22;3369;49.906;8.598;2022-10-22T09:15:50;16.80;99.90
6666;DHT22;3369;49.906;8.598;2022-10-22T09:18:44;16.90;99.90
6666;DHT22;3369;49.906;8.598;2022-10-22T09:24:23;17.00;99.90
6666;DHT22;3369;49.906;8.598;2022-10-22T09:26:50;17.10;99.90
6666;DHT22;3369;49.906;8.598;2022-10-22T09:29:23;17.30;99.90
6666;DHT22;3369;49.906;8.598;2022-10-22T09:31:49;17.40;99.90
6666;DHT22;3369;49.906;8.598;2022-10-22T09:34:19;17.50;99.90
6666;DHT22;3369;49.906;8.598;2022-10-22T09:36:45;17.60;99.90
6666;DHT22;3369;49.906;8.598;2022-10-22T09:39:25;17.70;99.90
6666;DHT22;3369;49.906;8.598;2022-10-22T09:41:52;17.70;99.90
6666;DHT22;3369;49.906;8.598;2022-10-22T09:44:18;17.80;99.90
6666;DHT22;3369;49.906;8.598;2022-10-22T09:46:44;18.00;99.90
6666;DHT22;3369;49.906;8.598;2022-10-22T09:49:14;18.10;99.90
6666;DHT22;3369;49.906;8.598;2022-10-22T09:57:05;18.30;99.90
6666;DHT22;3369;49.906;8.598;2022-10-22T09:59:37;18.30;99.90
6666;DHT22;3369;49.906;8.598;2022-10-22T10:04:34;18.40;99.90
6666;DHT22;3369;49.906;8.598;2022-10-22T10:07:00;18.50;99.90
6666;DHT22;3369;49.906;8.598;2022-10-22T10:09:28;18.50;99.90
6666;DHT22;3369;49.906;8.598;2022-10-22T10:12:20;18.60;99.90
6666;DHT22;3369;49.906;8.598;2022-10-22T10:14:53;18.60;99.90
6666;DHT22;3369;49.906;8.598;2022-10-22T10:25:34;18.60;99.90
6666;DHT22;3369;49.906;8.598;2022-10-22T10:28:26;18.60;99.90
6666;DHT22;3369;49.906;8.598;2022-10-22T10:31:19;18.70;99.90
6666;DHT22;3369;49.906;8.598;2022-10-22T10:36:54;18.90;99.90
6666;DHT22;3369;49.906;8.598;2022-10-22T10:39:45;18.90;99.90
6666;DHT22;3369;49.906;8.598;2022-10-22T10:42:25;19.00;99.90
6666;DHT22;3369;49.906;8.598;2022-10-22T10:45:15;19.10;99.90
6666;DHT22;3369;49.906;8.598;2022-10-22T10:50:23;19.10;99.90
6666;DHT22;3369;49.906;8.598;2022-10-22T10:53:12;19.00;99.90
6666;DHT22;3369;49.906;8.598;2022-10-22T11:06:52;18.30;99.90
6666;DHT22;3369;49.906;8.598;2022-10-22T11:09:28;18.30;99.90
6666;DHT22;3369;49.906;8.598;2022-10-22T11:12:01;18.30;99.90
6666;DHT22;3369;49.906;8.598;2022-10-22T11:17:16;18.50;99.90
6666;DHT22;3369;49.906;8.598;2022-10-22T11:22:56;18.80;99.90
6666;DHT22;3369;49.906;8.598;2022-10-22T11:25:26;18.80;99.90
6666;DHT22;3369;49.906;8.598;2022-10-22T11:27:58;18.90;99.90
6666;DHT22;3369;49.906;8.598;2022-10-22T11:30:31;18.90;99.90
6666;DHT22;3369;49.906;8.598;2022-10-22T11:33:00;18.90;99.90
6666;DHT22;3369;49.906;8.598;2022-10-22T11:35:33;18.80;99.90
6666;DHT22;3369;49.906;8.598;2022-10-22T11:38:00;18.90;99.90
6666;DHT22;3369;49.906;8.598;2022-10-22T11:40:46;18.80;99.90
6666;DHT22;3369;49.906;8.598;2022-10-22T11:49:04;18.70;99.90
6666;DHT22;3369;49.906;8.598;2022-10-22T11:51:36;18.80;99.90
6666;DHT22;3369;49.906;8.598;2022-10-22T11:54:29;18.80;99.90
6666;DHT22;3369;49.906;8.598;2022-10-22T11:59:56;18.80;99.90
6666;DHT22;3369;49.906;8.598;2022-10-22T12:02:37;18.90;99.90
6666;DHT22;3369;49.906;8.598;2022-10-22T12:07:50;19.00;99.90
6666;DHT22;3369;49.906;8.598;2022-10-22T12:10:33;19.10;99.90
6666;DHT22;3369;49.906;8.598;2022-10-22T12:13:22;19.20;99.90
6666;DHT22;3369;49.906;8.598;2022-10-22T12:15:52;19.40;99.90
6666;DHT22;3369;49.906;8.598;2022-10-22T12:18:24;19.40;99.90
6666;DHT22;3369;49.906;8.598;2022-10-22T12:20:52;19.40;99.90
6666;DHT22;3369;49.906;8.598;2022-10-22T12:23:23;19.40;99.90
6666;DHT22;3369;49.906;8.598;2022-10-22T12:25:49;19.40;99.90
6666;DHT22;3369;49.906;8.598;2022-10-22T12:28:14;19.40;99.90
6666;DHT22;3369;49.906;8.598;2022-10-22T12:30:41;19.50;99.90
6666;DHT22;3369;49.906;8.598;2022-10-22T12:33:22;19.60;99.90
6666;DHT22;3369;49.906;8.598;2022-10-22T12:35:49;19.70;99.90
6666;DHT22;3369;49.906;8.598;2022-10-22T12:38:20;19.80;99.90
6666;DHT22;3369;49.906;8.598;2022-10-22T12:40:48;20.00;99.90
6666;DHT22;3369;49.906;8.598;2022-10-22T12:43:23;20.10;99.90
6666;DHT22;3369;49.906;8.598;2022-10-22T12:45:49;20.10;99.90
6666;DHT22;3369;49.906;8.598;2022-10-22T12:48:23;20.20;99.90
6666;DHT22;3369;49.906;8.598;2022-10-22T12:50:51;20.20;99.90
6666;DHT22;3369;49.906;8.598;2022-10-22T12:53:23;20.20;99.90
6666;DHT22;3369;49.906;8.598;2022-10-22T12:55:53;20.30;99.90
6666;DHT22;3369;49.906;8.598;2022-10-22T12:58:27;20.30;99.90
6666;DHT22;3369;49.906;8.598;2022-10-22T13:00:55;20.40;99.90
6666;DHT22;3369;49.906;8.598;2022-10-22T13:03:33;20.30;99.90
6666;DHT22;3369;49.906;8.598;2022-10-22T13:06:34;20.30;99.90
6666;DHT22;3369;49.906;8.598;2022-10-22T13:11:37;20.20;99.90
6666;DHT22;3369;49.906;8.598;2022-10-22T13:14:17;20.20;99.90
6666;DHT22;3369;49.906;8.598;2022-10-22T13:17:02;20.10;99.90
6666;DHT22;3369;49.906;8.598;2022-10-22T13:22:01;20.00;99.90
6666;DHT22;3369;49.906;8.598;2022-10-22T13:24:26;20.00;99.90
6666;DHT22;3369;49.906;8.598;2022-10-22T13:26:54;20.00;99.90
6666;DHT22;3369;49.906;8.598;2022-10-22T13:29:21;20.10;99.90
6666;DHT22;3369;49.906;8.598;2022-10-22T13:31:50;20.10;99.90
6666;DHT22;3369;49.906;8.598;2022-10-22T13:34:19;20.00;99.90
6666;DHT22;3369;49.906;8.598;2022-10-22T13:36:46;19.90;99.90
6666;DHT22;3369;49.906;8.598;2022-10-22T13:39:19;19.90;99.90
6666;DHT22;3369;49.906;8.598;2022-10-22T13:41:45;19.80;99.90
6666;DHT22;3369;49.906;8.598;2022-10-22T13:44:11;19.90;99.90
6666;DHT22;3369;49.906;8.598;2022-10-22T13:46:37;19.90;99.90
6666;DHT22;3369;49.906;8.598;2022-10-22T13:49:14;20.00;99.90
6666;DHT22;3369;49.906;8.598;2022-10-22T13:51:41;20.00;99.90
6666;DHT22;3369;49.906;8.598;2022-10-22T13:54:17;20.10;99.90
6666;DHT22;3369;49.906;8.598;2022-10-22T13:56:44;20.10;99.90
6666;DHT22;3369;49.906;8.598;2022-10-22T13:59:10;20.10;99.90
6666;DHT22;3369;49.906;8.598;2022-10-22T14:01:36;20.20;99.90
6666;DHT22;3369;49.906;8.598;2022-10-22T14:04:04;20.10;99.90
6666;DHT22;3369;49.906;8.598;2022-10-22T14:06:31;20.10;99.90
6666;DHT22;3369;49.906;8.598;2022-10-22T14:09:00;20.10;99.90
6666;DHT22;3369;49.906;8.598;2022-10-22T14:11:26;20.10;99.90
6666;DHT22;3369;49.906;8.598;2022-10-22T14:13:53;20.10;99.90
6666;DHT22;3369;49.906;8.598;2022-10-22T14:16:24;20.10;99.90
6666;DHT22;3369;49.906;8.598;2022-10-22T14:18:50;20.10;99.90
6666;DHT22;3369;49.906;8.598;2022-10-22T14:21:17;20.10;99.90
6666;DHT22;3369;49.906;8.598;2022-10-22T14:23:45;20.10;99.90
6666;DHT22;3369;49.906;8.598;2022-10-22T14:26:21;20.10;99.90
6666;DHT22;3369;49.906;8.598;2022-10-22T14:28:47;20.00;99.90
6666;DHT22;3369;49.906;8.598;2022-10-22T14:31:13;19.90;99.90
6666;DHT22;3369;49.906;8.598;2022-10-22T14:33:39;19.80;99.90
6666;DHT22;3369;49.906;8.598;2022-10-22T14:54:30;19.30;99.90
6666;DHT22;3369;49.906;8.598;2022-10-22T14:56:57;19.20;99.90
6666;DHT22;3369;49.906;8.598;2022-10-22T14:59:23;19.30;99.90
6666;DHT22;3369;49.906;8.598;2022-10-22T15:01:49;19.30;99.90
6666;DHT22;3369;49.906;8.598;2022-10-22T15:04:14;19.30;99.90
6666;DHT22;3369;49.906;8.598;2022-10-22T15:06:40;19.30;99.90
6666;DHT22;3369;49.906;8.598;2022-10-22T15:09:06;19.30;99.90
6666;DHT22;3369;49.906;8.598;2022-10-22T15:11:32;19.30;99.90
6666;DHT22;3369;49.906;8.598;2022-10-22T15:13:57;19.20;99.90
6666;DHT22;3369;49.906;8.598;2022-10-22T15:16:23;19.20;99.90
6666;DHT22;3369;49.906;8.598;2022-10-22T15:18:49;19.20;99.90
6666;DHT22;3369;49.906;8.598;2022-10-22T15:21:18;19.10;99.90
6666;DHT22;3369;49.906;8.598;2022-10-22T15:23:44;19.10;99.90
6666;DHT22;3369;49.906;8.598;2022-10-22T15:26:11;19.10;99.90
6666;DHT22;3369;49.906;8.598;2022-10-22T15:28:38;19.10;99.90
6666;DHT22;3369;49.906;8.598;2022-10-22T15:31:05;19.00;99.90
6666;DHT22;3369;49.906;8.598;2022-10-22T15:33:31;19.00;99.90
6666;DHT22;3369;49.906;8.598;2022-10-22T15:35:57;18.90;99.90
6666;DHT22;3369;49.906;8.598;2022-10-22T15:38:28;18.80;99.90
6666;DHT22;3369;49.906;8.598;2022-10-22T15:41:06;18.80;99.90
6666;DHT22;3369;49.906;8.598;2022-10-22T15:43:33;18.80;99.90
6666;DHT22;3369;49.906;8.598;2022-10-22T15:46:18;18.70;99.90
6666;DHT22;3369;49.906;8.598;2022-10-22T15:48:44;18.70;99.90
6666;DHT22;3369;49.906;8.598;2022-10-22T15:51:16;18.60;99.90
6666;DHT22;3369;49.906;8.598;2022-10-22T15:53:43;18.50;99.90
6666;DHT22;3369;49.906;8.598;2022-10-22T15:56:09;18.40;99.90
6666;DHT22;3369;49.906;8.598;2022-10-22T15:58:38;18.30;99.90
6666;DHT22;3369;49.906;8.598;2022-10-22T16:01:09;18.30;99.90
6666;DHT22;3369;49.906;8.598;2022-10-22T16:03:36;18.20;99.90
6666;DHT22;3369;49.906;8.598;2022-10-22T16:06:03;18.10;99.90
6666;DHT22;3369;49.906;8.598;2022-10-22T16:08:29;18.10;99.90
6666;DHT22;3369;49.906;8.598;2022-10-22T16:10:55;18.00;99.90
6666;DHT22;3369;49.906;8.598;2022-10-22T16:13:21;18.00;99.90
6666;DHT22;3369;49.906;8.598;2022-10-22T16:15:49;17.90;99.90
6666;DHT22;3369;49.906;8.598;2022-10-22T16:18:16;17.90;99.90
6666;DHT22;3369;49.906;8.598;2022-10-22T16:20:42;17.80;99.90
6666;DHT22;3369;49.906;8.598;2022-10-22T16:23:08;17.80;99.90
6666;DHT22;3369;49.906;8.598;2022-10-22T16:25:38;17.70;99.90
6666;DHT22;3369;49.906;8.598;2022-10-22T16:28:04;17.70;99.90
6666;DHT22;3369;49.906;8.598;2022-10-22T16:30:32;17.60;99.90
6666;DHT22;3369;49.906;8.598;2022-10-22T16:32:59;17.50;99.90
6666;DHT22;3369;49.906;8.598;2022-10-22T16:35:25;17.50;99.90
6666;DHT22;3369;49.906;8.598;2022-10-22T16:37:51;17.50;99.90
6666;DHT22;3369;49.906;8.598;2022-10-22T16:40:16;17.50;99.90
6666;DHT22;3369;49.906;8.598;2022-10-22T16:42:43;17.40;99.90
6666;DHT22;3369;49.906;8.598;2022-10-22T16:45:09;17.40;99.90
6666;DHT22;3369;49.906;8.598;2022-10-22T16:47:35;17.30;99.90
6666;DHT22;3369;49.906;8.598;2022-10-22T16:50:01;17.30;99.90
6666;DHT22;3369;49.906;8.598;2022-10-22T16:52:26;17.30;99.90
6666;DHT22;3369;49.906;8.598;2022-10-22T16:54:52;17.30;99.90
6666;DHT22;3369;49.906;8.598;2022-10-22T16:57:18;17.20;99.90
6666;DHT22;3369;49.906;8.598;2022-10-22T16:59:43;17.10;99.90
6666;DHT22;3369;49.906;8.598;2022-10-22T17:02:10;17.00;99.90
6666;DHT22;3369;49.906;8.598;2022-10-22T17:04:35;16.90;99.90
6666;DHT22;3369;49.906;8.598;2022-10-22T17:07:01;16.80;99.90
6666;DHT22;3369;49.906;8.598;2022-10-22T17:09:27;16.70;99.90
6666;DHT22;3369;49.906;8.598;2022-10-22T17:11:53;16.60;99.90
6666;DHT22;3369;49.906;8.598;2022-10-22T17:14:19;16.50;99.90
6666;DHT22;3369;49.906;8.598;2022-10-22T17:16:45;16.40;99.90
6666;DHT22;3369;49.906;8.598;2022-10-22T17:19:13;16.40;99.90
6666;DHT22;3369;49.906;8.598;2022-10-22T17:21:40;16.30;99.90
6666;DHT22;3369;49.906;8.598;2022-10-22T17:24:06;16.20;99.90
6666;DHT22;3369;49.906;8.598;2022-10-22T17:26:32;16.20;99.90
6666;DHT22;3369;49.906;8.598;2022-10-22T17:28:59;16.10;99.90
6666;DHT22;3369;49.906;8.598;2022-10-22T17:31:26;16.00;99.90
6666;DHT22;3369;49.906;8.598;2022-10-22T17:33:53;16.00;99.90
6666;DHT22;3369;49.906;8.598;2022-10-22T17:36:21;15.90;99.90
6666;DHT22;3369;49.906;8.598;2022-10-22T17:38:49;15.80;99.90
6666;DHT22;3369;49.906;8.598;2022-10-22T17:41:22;15.80;99.90
6666;DHT22;3369;49.906;8.598;2022-10-22T17:43:49;15.70;99.90
6666;DHT22;3369;49.906;8.598;2022-10-22T17:46:25;15.60;99.90
6666;DHT22;3369;49.906;8.598;2022-10-22T17:48:56;15.60;99.90
6666;DHT22;3369;49.906;8.598;2022-10-22T17:51:24;15.50;99.90
6666;DHT22;3369;49.906;8.598;2022-10-22T17:53:50;15.50;99.90
6666;DHT22;3369;49.906;8.598;2022-10-22T17:56:27;15.40;99.90
6666;DHT22;3369;49.906;8.598;2022-10-22T17:58:54;15.40;99.90
6666;DHT22;3369;49.906;8.598;2022-10-22T18:01:22;15.40;99.90
6666;DHT22;3369;49.906;8.598;2022-10-22T18:03:50;15.30;99.90
6666;DHT22;3369;49.906;8.598;2022-10-22T18:06:16;15.30;99.90
6666;DHT22;3369;49.906;8.598;2022-10-22T18:08:42;15.30;99.90
6666;DHT22;3369;49.906;8.598;2022-10-22T18:11:11;15.30;99.90
6666;DHT22;3369;49.906;8.598;2022-10-22T18:13:36;15.30;99.90
6666;DHT22;3369;49.906;8.598;2022-10-22T18:16:02;15.30;99.90
6666;DHT22;3369;49.906;8.598;2022-10-22T18:18:29;15.30;99.90